sensor_id;sensor_type;location;lat;lon;timestamp;pressure;altitude;pressure_sealevel;temperature;humidity
26937;BME280;14495;48.116;11.676;2023-07-31T00:01:32;95721.94;;;15.82;100.00
26937;BME280;14495;48.116;11.676;2023-07-31T00:03:58;95718.97;;;15.75;100.00
26937;BME280;14495;48.116;11.676;2023-07-31T00:06:23;95711.81;;;15.66;100.00
26937;BME280;14495;48.116;11.676;2023-07-31T00:08:48;95717.94;;;15.55;100.00
26937;BME280;14495;48.116;11.676;2023-07-31T00:11:14;95722.13;;;15.46;100.00
26937;BME280;14495;48.116;11.676;2023-07-31T00:13:39;95717.84;;;15.34;100.00
26937;BME280;14495;48.116;11.676;2023-07-31T00:16:05;95714.16;;;15.25;100.00
26937;BME280;14495;48.116;11.676;2023-07-31T00:18:31;95710.84;;;15.12;100.00
26937;BME280;14495;48.116;11.676;2023-07-31T00:20:57;95707.84;;;15.05;100.00
26937;BME280;14495;48.116;11.676;2023-07-31T00:23:22;95712.50;;;15.02;100.00
26937;BME280;14495;48.116;11.676;2023-07-31T00:25:48;95715.63;;;14.96;100.00
26937;BME280;14495;48.116;11.676;2023-07-31T00:28:13;95719.81;;;14.87;100.00
26937;BME280;14495;48.116;11.676;2023-07-31T00:30:39;95716.09;;;14.78;100.00
26937;BME280;14495;48.116;11.676;2023-07-31T00:33:04;95713.56;;;14.77;100.00
26937;BME280;14495;48.116;11.676;2023-07-31T00:35:30;95711.91;;;14.76;100.00
26937;BME280;14495;48.116;11.676;2023-07-31T00:37:58;95710.94;;;14.77;100.00
26937;BME280;14495;48.116;11.676;2023-07-31T00:40:23;95706.28;;;14.69;100.00
26937;BME280;14495;48.116;11.676;2023-07-31T00:42:51;95705.47;;;14.68;100.00
26937;BME280;14495;48.116;11.676;2023-07-31T00:45:19;95704.84;;;14.65;100.00
26937;BME280;14495;48.116;11.676;2023-07-31T00:47:44;95705.09;;;14.62;100.00
26937;BME280;14495;48.116;11.676;2023-07-31T00:50:10;95708.09;;;14.57;100.00
26937;BME280;14495;48.116;11.676;2023-07-31T00:52:35;95709.84;;;14.45;100.00
26937;BME280;14495;48.116;11.676;2023-07-31T00:55:02;95706.47;;;14.43;100.00
26937;BME280;14495;48.116;11.676;2023-07-31T00:57:28;95707.22;;;14.45;100.00
26937;BME280;14495;48.116;11.676;2023-07-31T00:59:55;95701.22;;;14.43;100.00
26937;BME280;14495;48.116;11.676;2023-07-31T01:02:22;95706.34;;;14.45;100.00
26937;BME280;14495;48.116;11.676;2023-07-31T01:04:47;95703.13;;;14.41;100.00
26937;BME280;14495;48.116;11.676;2023-07-31T01:07:44;95699.44;;;14.44;100.00
26937;BME280;14495;48.116;11.676;2023-07-31T01:10:21;95693.47;;;14.42;100.00
26937;BME280;14495;48.116;11.676;2023-07-31T01:12:52;95691.78;;;14.41;100.00
26937;BME280;14495;48.116;11.676;2023-07-31T01:15:18;95691.06;;;14.50;100.00
26937;BME280;14495;48.116;11.676;2023-07-31T01:17:44;95694.94;;;14.57;100.00
26937;BME280;14495;48.116;11.676;2023-07-31T01:20:23;95683.59;;;14.68;100.00
26937;BME280;14495;48.116;11.676;2023-07-31T01:25:53;95683.69;;;14.78;100.00
26937;BME280;14495;48.116;11.676;2023-07-31T01:28:27;95683.47;;;14.81;100.00
26937;BME280;14495;48.116;11.676;2023-07-31T01:30:58;95679.84;;;14.93;100.00
26937;BME280;14495;48.116;11.676;2023-07-31T01:33:25;95674.13;;;14.99;100.00
26937;BME280;14495;48.116;11.676;2023-07-31T01:35:51;95669.59;;;15.01;100.00
26937;BME280;14495;48.116;11.676;2023-07-31T01:38:20;95664.91;;;15.05;100.00
26937;BME280;14495;48.116;11.676;2023-07-31T01:40:51;95665.84;;;15.04;100.00
26937;BME280;14495;48.116;11.676;2023-07-31T01:43:16;95664.31;;;15.01;100.00
26937;BME280;14495;48.116;11.676;2023-07-31T01:45:41;95663.81;;;15.07;100.00
26937;BME280;14495;48.116;11.676;2023-07-31T01:48:07;95662.88;;;15.08;100.00
26937;BME280;14495;48.116;11.676;2023-07-31T01:50:34;95663.69;;;15.09;100.00
26937;BME280;14495;48.116;11.676;2023-07-31T01:52:59;95661.91;;;15.10;100.00
26937;BME280;14495;48.116;11.676;2023-07-31T01:55:25;95662.16;;;15.06;100.00
26937;BME280;14495;48.116;11.676;2023-07-31T01:57:51;95653.28;;;15.07;100.00
26937;BME280;14495;48.116;11.676;2023-07-31T02:00:17;95656.03;;;15.06;100.00
26937;BME280;14495;48.116;11.676;2023-07-31T02:02:42;95653.28;;;15.07;100.00
26937;BME280;14495;48.116;11.676;2023-07-31T02:05:08;95657.72;;;15.07;100.00
26937;BME280;14495;48.116;11.676;2023-07-31T02:07:33;95653.53;;;15.04;100.00
26937;BME280;14495;48.116;11.676;2023-07-31T02:09:58;95647.91;;;15.09;100.00
26937;BME280;14495;48.116;11.676;2023-07-31T02:12:24;95647.91;;;15.09;100.00
26937;BME280;14495;48.116;11.676;2023-07-31T02:14:49;95649.97;;;15.05;100.00
26937;BME280;14495;48.116;11.676;2023-07-31T02:17:14;95653.28;;;15.07;100.00
26937;BME280;14495;48.116;11.676;2023-07-31T02:19:42;95646.13;;;15.10;100.00
26937;BME280;14495;48.116;11.676;2023-07-31T02:22:07;95642.53;;;15.11;100.00
26937;BME280;14495;48.116;11.676;2023-07-31T02:24:33;95647.28;;;15.17;100.00
26937;BME280;14495;48.116;11.676;2023-07-31T02:27:00;95641.22;;;15.16;100.00
26937;BME280;14495;48.116;11.676;2023-07-31T02:29:26;95632.94;;;15.10;100.00
26937;BME280;14495;48.116;11.676;2023-07-31T02:31:51;95630.31;;;15.10;100.00
26937;BME280;14495;48.116;11.676;2023-07-31T02:34:16;95623.63;;;15.05;100.00
26937;BME280;14495;48.116;11.676;2023-07-31T02:36:42;95620.78;;;15.08;100.00
26937;BME280;14495;48.116;11.676;2023-07-31T02:39:07;95626.28;;;15.05;100.00
26937;BME280;14495;48.116;11.676;2023-07-31T02:41:32;95616.97;;;15.01;100.00
26937;BME280;14495;48.116;11.676;2023-07-31T02:43:58;95628.06;;;15.05;100.00
26937;BME280;14495;48.116;11.676;2023-07-31T02:46:23;95619.59;;;15.01;100.00
26937;BME280;14495;48.116;11.676;2023-07-31T02:48:50;95613.63;;;14.99;100.00
26937;BME280;14495;48.116;11.676;2023-07-31T02:51:15;95616.59;;;14.95;100.00
26937;BME280;14495;48.116;11.676;2023-07-31T02:53:41;95610.53;;;14.83;100.00
26937;BME280;14495;48.116;11.676;2023-07-31T02:56:06;95606.13;;;14.72;100.00
26937;BME280;14495;48.116;11.676;2023-07-31T02:58:31;95606.25;;;14.59;100.00
26937;BME280;14495;48.116;11.676;2023-07-31T03:00:58;95616.25;;;14.43;100.00
26937;BME280;14495;48.116;11.676;2023-07-31T03:03:24;95612.44;;;14.36;100.00
26937;BME280;14495;48.116;11.676;2023-07-31T03:05:49;95620.56;;;14.33;100.00
26937;BME280;14495;48.116;11.676;2023-07-31T03:08:14;95614.00;;;14.27;100.00
26937;BME280;14495;48.116;11.676;2023-07-31T03:10:40;95609.47;;;14.29;100.00
26937;BME280;14495;48.116;11.676;2023-07-31T03:13:06;95607.41;;;14.21;100.00
26937;BME280;14495;48.116;11.676;2023-07-31T03:15:31;95612.41;;;14.13;100.00
26937;BME280;14495;48.116;11.676;2023-07-31T03:17:56;95614.56;;;14.08;100.00
26937;BME280;14495;48.116;11.676;2023-07-31T03:20:22;95608.25;;;14.10;100.00
26937;BME280;14495;48.116;11.676;2023-07-31T03:22:47;95608.97;;;14.13;100.00
26937;BME280;14495;48.116;11.676;2023-07-31T03:25:12;95602.50;;;14.05;100.00
26937;BME280;14495;48.116;11.676;2023-07-31T03:27:39;95602.13;;;13.99;100.00
26937;BME280;14495;48.116;11.676;2023-07-31T03:30:05;95611.66;;;13.88;100.00
26937;BME280;14495;48.116;11.676;2023-07-31T03:32:30;95611.06;;;13.85;100.00
26937;BME280;14495;48.116;11.676;2023-07-31T03:34:56;95617.84;;;13.76;100.00
26937;BME280;14495;48.116;11.676;2023-07-31T03:37:21;95616.41;;;13.72;100.00
26937;BME280;14495;48.116;11.676;2023-07-31T03:39:46;95622.13;;;13.66;100.00
26937;BME280;14495;48.116;11.676;2023-07-31T03:42:14;95614.97;;;13.68;100.00
26937;BME280;14495;48.116;11.676;2023-07-31T03:44:40;95624.00;;;13.64;100.00
26937;BME280;14495;48.116;11.676;2023-07-31T03:47:05;95620.91;;;13.59;100.00
26937;BME280;14495;48.116;11.676;2023-07-31T03:49:31;95624.00;;;13.64;100.00
26937;BME280;14495;48.116;11.676;2023-07-31T03:51:56;95628.88;;;13.57;100.00
26937;BME280;14495;48.116;11.676;2023-07-31T03:54:21;95629.50;;;13.61;100.00
26937;BME280;14495;48.116;11.676;2023-07-31T03:56:47;95625.91;;;13.62;100.00
26937;BME280;14495;48.116;11.676;2023-07-31T03:59:12;95628.63;;;13.60;100.00
26937;BME280;14495;48.116;11.676;2023-07-31T04:01:37;95630.72;;;13.68;100.00
26937;BME280;14495;48.116;11.676;2023-07-31T04:04:03;95633.19;;;13.69;100.00
26937;BME280;14495;48.116;11.676;2023-07-31T04:06:28;95632.38;;;13.69;100.00
26937;BME280;14495;48.116;11.676;2023-07-31T04:08:53;95623.31;;;13.73;100.00
26937;BME280;14495;48.116;11.676;2023-07-31T04:11:19;95630.25;;;13.74;100.00
26937;BME280;14495;48.116;11.676;2023-07-31T04:13:44;95620.13;;;13.81;100.00
26937;BME280;14495;48.116;11.676;2023-07-31T04:16:09;95621.81;;;13.93;100.00
26937;BME280;14495;48.116;11.676;2023-07-31T04:18:35;95610.25;;;13.96;100.00
26937;BME280;14495;48.116;11.676;2023-07-31T04:21:00;95615.13;;;14.00;100.00
26937;BME280;14495;48.116;11.676;2023-07-31T04:23:27;95619.09;;;14.06;100.00
26937;BME280;14495;48.116;11.676;2023-07-31T04:25:53;95625.06;;;14.08;100.00
26937;BME280;14495;48.116;11.676;2023-07-31T04:28:18;95623.03;;;14.11;100.00
26937;BME280;14495;48.116;11.676;2023-07-31T04:30:43;95617.91;;;14.21;100.00
26937;BME280;14495;48.116;11.676;2023-07-31T04:33:09;95619.09;;;14.28;100.00
26937;BME280;14495;48.116;11.676;2023-07-31T04:35:34;95617.34;;;14.40;100.00
26937;BME280;14495;48.116;11.676;2023-07-31T04:37:59;95613.13;;;14.49;100.00
26937;BME280;14495;48.116;11.676;2023-07-31T04:40:25;95610.28;;;14.52;100.00
26937;BME280;14495;48.116;11.676;2023-07-31T04:42:50;95608.25;;;14.56;100.00
26937;BME280;14495;48.116;11.676;2023-07-31T04:45:16;95606.03;;;14.62;100.00
26937;BME280;14495;48.116;11.676;2023-07-31T04:47:41;95606.03;;;14.62;100.00
26937;BME280;14495;48.116;11.676;2023-07-31T04:50:06;95605.28;;;14.72;100.00
26937;BME280;14495;48.116;11.676;2023-07-31T04:52:32;95601.69;;;14.73;100.00
26937;BME280;14495;48.116;11.676;2023-07-31T04:54:57;95602.88;;;14.80;100.00
26937;BME280;14495;48.116;11.676;2023-07-31T04:57:23;95604.06;;;14.87;100.00
26937;BME280;14495;48.116;11.676;2023-07-31T04:59:48;95598.81;;;14.76;100.00
26937;BME280;14495;48.116;11.676;2023-07-31T05:02:13;95594.16;;;14.79;100.00
26937;BME280;14495;48.116;11.676;2023-07-31T05:04:39;95597.84;;;14.77;100.00
26937;BME280;14495;48.116;11.676;2023-07-31T05:07:04;95594.75;;;14.83;100.00
26937;BME280;14495;48.116;11.676;2023-07-31T05:09:30;95599.16;;;14.94;100.00
26937;BME280;14495;48.116;11.676;2023-07-31T05:11:55;95598.03;;;15.07;100.00
26937;BME280;14495;48.116;11.676;2023-07-31T05:14:20;95595.59;;;15.27;100.00
26937;BME280;14495;48.116;11.676;2023-07-31T05:16:46;95596.13;;;15.42;100.00
26937;BME280;14495;48.116;11.676;2023-07-31T05:19:11;95592.56;;;15.64;100.00
26937;BME280;14495;48.116;11.676;2023-07-31T05:21:36;95594.84;;;15.90;100.00
26937;BME280;14495;48.116;11.676;2023-07-31T05:24:02;95602.16;;;16.07;100.00
26937;BME280;14495;48.116;11.676;2023-07-31T05:26:27;95601.19;;;16.08;100.00
26937;BME280;14495;48.116;11.676;2023-07-31T05:28:53;95602.44;;;16.35;100.00
26937;BME280;14495;48.116;11.676;2023-07-31T05:31:18;95598.09;;;16.55;100.00
26937;BME280;14495;48.116;11.676;2023-07-31T05:33:46;95599.72;;;16.77;100.00
26937;BME280;14495;48.116;11.676;2023-07-31T05:36:11;95597.81;;;16.98;100.00
26937;BME280;14495;48.116;11.676;2023-07-31T05:38:37;95590.47;;;17.12;100.00
26937;BME280;14495;48.116;11.676;2023-07-31T05:41:02;95593.31;;;17.49;100.00
26937;BME280;14495;48.116;11.676;2023-07-31T05:43:28;95593.03;;;17.62;100.00
26937;BME280;14495;48.116;11.676;2023-07-31T05:45:53;95594.41;;;17.86;100.00
26937;BME280;14495;48.116;11.676;2023-07-31T05:48:18;95593.84;;;17.82;100.00
26937;BME280;14495;48.116;11.676;2023-07-31T05:50:44;95590.63;;;18.18;100.00
26937;BME280;14495;48.116;11.676;2023-07-31T05:53:09;95581.75;;;18.46;100.00
26937;BME280;14495;48.116;11.676;2023-07-31T05:55:35;95578.34;;;18.64;100.00
26937;BME280;14495;48.116;11.676;2023-07-31T05:58:00;95587.97;;;18.92;100.00
26937;BME280;14495;48.116;11.676;2023-07-31T06:00:26;95576.78;;;18.99;100.00
26937;BME280;14495;48.116;11.676;2023-07-31T06:02:52;95573.03;;;19.19;100.00
26937;BME280;14495;48.116;11.676;2023-07-31T06:05:17;95575.31;;;19.32;100.00
26937;BME280;14495;48.116;11.676;2023-07-31T06:07:43;95575.47;;;19.66;100.00
26937;BME280;14495;48.116;11.676;2023-07-31T06:10:08;95580.78;;;19.84;100.00
26937;BME280;14495;48.116;11.676;2023-07-31T06:12:35;95575.69;;;19.91;100.00
26937;BME280;14495;48.116;11.676;2023-07-31T06:15:02;95570.53;;;20.68;100.00
26937;BME280;14495;48.116;11.676;2023-07-31T06:17:27;95572.13;;;22.12;100.00
26937;BME280;14495;48.116;11.676;2023-07-31T06:19:53;95575.81;;;22.67;100.00
26937;BME280;14495;48.116;11.676;2023-07-31T06:22:18;95574.06;;;23.30;96.99
26937;BME280;14495;48.116;11.676;2023-07-31T06:24:44;95579.94;;;22.86;92.29
26937;BME280;14495;48.116;11.676;2023-07-31T06:27:10;95583.22;;;22.96;94.70
26937;BME280;14495;48.116;11.676;2023-07-31T06:29:35;95593.16;;;22.63;93.40
26937;BME280;14495;48.116;11.676;2023-07-31T06:32:00;95596.94;;;22.76;93.82
26937;BME280;14495;48.116;11.676;2023-07-31T06:34:26;95596.09;;;22.76;93.95
26937;BME280;14495;48.116;11.676;2023-07-31T06:36:51;95599.88;;;22.26;91.57
26937;BME280;14495;48.116;11.676;2023-07-31T06:39:17;95597.88;;;21.87;91.82
26937;BME280;14495;48.116;11.676;2023-07-31T06:41:43;95597.72;;;21.80;95.09
26937;BME280;14495;48.116;11.676;2023-07-31T06:44:08;95595.22;;;21.03;99.27
26937;BME280;14495;48.116;11.676;2023-07-31T06:46:34;95598.78;;;20.77;100.00
26937;BME280;14495;48.116;11.676;2023-07-31T06:48:59;95596.75;;;20.45;100.00
26937;BME280;14495;48.116;11.676;2023-07-31T06:51:24;95593.72;;;19.69;100.00
26937;BME280;14495;48.116;11.676;2023-07-31T06:53:50;95593.94;;;19.76;100.00
26937;BME280;14495;48.116;11.676;2023-07-31T06:56:15;95588.66;;;19.58;100.00
26937;BME280;14495;48.116;11.676;2023-07-31T06:58:40;95593.41;;;19.55;100.00
26937;BME280;14495;48.116;11.676;2023-07-31T07:01:06;95578.84;;;19.95;100.00
26937;BME280;14495;48.116;11.676;2023-07-31T07:03:32;95575.97;;;20.32;100.00
26937;BME280;14495;48.116;11.676;2023-07-31T07:05:57;95569.00;;;20.05;100.00
26937;BME280;14495;48.116;11.676;2023-07-31T07:08:24;95570.16;;;20.28;100.00
26937;BME280;14495;48.116;11.676;2023-07-31T07:10:49;95564.59;;;20.14;100.00
26937;BME280;14495;48.116;11.676;2023-07-31T07:13:14;95572.53;;;20.14;100.00
26937;BME280;14495;48.116;11.676;2023-07-31T07:15:40;95575.75;;;19.99;100.00
26937;BME280;14495;48.116;11.676;2023-07-31T07:18:05;95576.47;;;20.09;100.00
26937;BME280;14495;48.116;11.676;2023-07-31T07:20:31;95572.97;;;19.83;100.00
26937;BME280;14495;48.116;11.676;2023-07-31T07:22:56;95573.09;;;19.63;100.00
26937;BME280;14495;48.116;11.676;2023-07-31T07:25:21;95582.50;;;20.20;100.00
26937;BME280;14495;48.116;11.676;2023-07-31T07:27:47;95576.66;;;20.69;100.00
26937;BME280;14495;48.116;11.676;2023-07-31T07:30:14;95582.09;;;20.93;100.00
26937;BME280;14495;48.116;11.676;2023-07-31T07:32:40;95575.25;;;21.50;100.00
26937;BME280;14495;48.116;11.676;2023-07-31T07:35:06;95581.28;;;21.85;96.12
26937;BME280;14495;48.116;11.676;2023-07-31T07:37:31;95573.78;;;21.64;97.13
26937;BME280;14495;48.116;11.676;2023-07-31T07:39:57;95576.44;;;21.96;100.00
26937;BME280;14495;48.116;11.676;2023-07-31T07:42:22;95568.59;;;22.19;94.30
26937;BME280;14495;48.116;11.676;2023-07-31T07:44:48;95570.75;;;22.24;94.46
26937;BME280;14495;48.116;11.676;2023-07-31T07:47:13;95563.22;;;22.61;87.94
26937;BME280;14495;48.116;11.676;2023-07-31T07:49:39;95562.91;;;23.26;83.13
26937;BME280;14495;48.116;11.676;2023-07-31T07:52:04;95557.81;;;24.09;82.71
26937;BME280;14495;48.116;11.676;2023-07-31T07:54:30;95557.41;;;24.50;80.59
26937;BME280;14495;48.116;11.676;2023-07-31T07:56:55;95553.38;;;25.93;74.78
26937;BME280;14495;48.116;11.676;2023-07-31T07:59:21;95539.75;;;26.51;74.05
26937;BME280;14495;48.116;11.676;2023-07-31T08:01:46;95542.47;;;26.86;71.28
26937;BME280;14495;48.116;11.676;2023-07-31T08:04:11;95529.09;;;26.30;70.35
26937;BME280;14495;48.116;11.676;2023-07-31T08:06:37;95530.34;;;24.38;72.28
26937;BME280;14495;48.116;11.676;2023-07-31T08:09:02;95532.13;;;23.24;76.62
26937;BME280;14495;48.116;11.676;2023-07-31T08:11:31;95524.59;;;22.96;79.97
26937;BME280;14495;48.116;11.676;2023-07-31T08:13:57;95527.31;;;23.88;81.63
26937;BME280;14495;48.116;11.676;2023-07-31T08:16:22;95516.06;;;24.31;78.73
26937;BME280;14495;48.116;11.676;2023-07-31T08:18:48;95529.06;;;24.34;79.55
26937;BME280;14495;48.116;11.676;2023-07-31T08:21:13;95521.03;;;24.49;74.73
26937;BME280;14495;48.116;11.676;2023-07-31T08:23:39;95532.69;;;24.03;74.45
26937;BME280;14495;48.116;11.676;2023-07-31T08:26:04;95530.34;;;24.23;81.74
26937;BME280;14495;48.116;11.676;2023-07-31T08:28:32;95534.09;;;24.14;73.52
26937;BME280;14495;48.116;11.676;2023-07-31T08:30:57;95531.31;;;24.22;74.44
26937;BME280;14495;48.116;11.676;2023-07-31T08:33:23;95524.66;;;23.88;73.44
26937;BME280;14495;48.116;11.676;2023-07-31T08:35:50;95523.47;;;24.06;73.89
26937;BME280;14495;48.116;11.676;2023-07-31T08:38:16;95527.16;;;23.90;74.78
26937;BME280;14495;48.116;11.676;2023-07-31T08:40:41;95530.44;;;23.69;73.51
26937;BME280;14495;48.116;11.676;2023-07-31T08:43:07;95526.00;;;23.61;74.30
26937;BME280;14495;48.116;11.676;2023-07-31T08:45:32;95522.88;;;23.58;77.33
26937;BME280;14495;48.116;11.676;2023-07-31T08:48:00;95529.22;;;23.10;76.24
26937;BME280;14495;48.116;11.676;2023-07-31T08:50:26;95534.47;;;22.48;74.54
26937;BME280;14495;48.116;11.676;2023-07-31T08:52:53;95529.28;;;22.54;78.03
26937;BME280;14495;48.116;11.676;2023-07-31T08:55:19;95526.34;;;22.25;77.63
26937;BME280;14495;48.116;11.676;2023-07-31T08:57:50;95529.91;;;21.84;77.06
26937;BME280;14495;48.116;11.676;2023-07-31T09:00:17;95524.28;;;21.54;81.93
26937;BME280;14495;48.116;11.676;2023-07-31T09:05:17;95522.03;;;21.17;82.04
26937;BME280;14495;48.116;11.676;2023-07-31T09:07:47;95519.88;;;21.20;85.86
26937;BME280;14495;48.116;11.676;2023-07-31T09:10:12;95527.19;;;21.43;83.55
26937;BME280;14495;48.116;11.676;2023-07-31T09:12:39;95522.09;;;21.50;82.28
26937;BME280;14495;48.116;11.676;2023-07-31T09:15:05;95526.41;;;21.75;83.56
26937;BME280;14495;48.116;11.676;2023-07-31T09:17:36;95530.19;;;22.14;84.32
26937;BME280;14495;48.116;11.676;2023-07-31T09:20:20;95515.88;;;22.39;79.60
26937;BME280;14495;48.116;11.676;2023-07-31T09:22:46;95515.25;;;23.00;84.62
26937;BME280;14495;48.116;11.676;2023-07-31T09:27:59;95503.69;;;23.39;75.78
26937;BME280;14495;48.116;11.676;2023-07-31T09:30:26;95500.53;;;23.59;74.92
26937;BME280;14495;48.116;11.676;2023-07-31T09:33:01;95501.31;;;23.67;74.89
26937;BME280;14495;48.116;11.676;2023-07-31T09:35:30;95505.56;;;24.29;75.44
26937;BME280;14495;48.116;11.676;2023-07-31T09:38:15;95505.19;;;24.33;71.84
26937;BME280;14495;48.116;11.676;2023-07-31T09:40:42;95503.16;;;24.05;72.85
26937;BME280;14495;48.116;11.676;2023-07-31T09:43:11;95506.66;;;24.20;73.10
26937;BME280;14495;48.116;11.676;2023-07-31T09:45:38;95498.13;;;24.25;70.26
26937;BME280;14495;48.116;11.676;2023-07-31T09:48:14;95496.44;;;24.09;71.23
26937;BME280;14495;48.116;11.676;2023-07-31T09:50:43;95499.19;;;24.01;71.29
26937;BME280;14495;48.116;11.676;2023-07-31T09:53:09;95490.31;;;24.53;70.74
26937;BME280;14495;48.116;11.676;2023-07-31T09:55:36;95484.53;;;23.97;68.65
26937;BME280;14495;48.116;11.676;2023-07-31T09:58:05;95483.53;;;23.98;70.74
26937;BME280;14495;48.116;11.676;2023-07-31T10:00:31;95488.16;;;24.19;75.68
26937;BME280;14495;48.116;11.676;2023-07-31T10:03:02;95471.47;;;24.46;69.68
26937;BME280;14495;48.116;11.676;2023-07-31T10:05:33;95472.69;;;23.84;69.69
26937;BME280;14495;48.116;11.676;2023-07-31T10:07:59;95466.97;;;24.02;70.80
26937;BME280;14495;48.116;11.676;2023-07-31T10:10:26;95464.28;;;23.87;71.11
26937;BME280;14495;48.116;11.676;2023-07-31T10:12:53;95462.31;;;23.66;70.96
26937;BME280;14495;48.116;11.676;2023-07-31T10:15:21;95458.00;;;23.42;68.44
26937;BME280;14495;48.116;11.676;2023-07-31T10:17:48;95454.63;;;23.48;71.03
26937;BME280;14495;48.116;11.676;2023-07-31T10:20:14;95441.19;;;24.24;71.46
26937;BME280;14495;48.116;11.676;2023-07-31T10:22:41;95438.78;;;24.44;68.59
26937;BME280;14495;48.116;11.676;2023-07-31T10:25:08;95429.72;;;24.09;67.38
26937;BME280;14495;48.116;11.676;2023-07-31T10:27:35;95429.88;;;24.07;68.07
26937;BME280;14495;48.116;11.676;2023-07-31T10:30:03;95420.88;;;24.53;70.13
26937;BME280;14495;48.116;11.676;2023-07-31T10:32:30;95419.28;;;24.59;68.98
26937;BME280;14495;48.116;11.676;2023-07-31T10:34:55;95414.94;;;24.43;65.77
26937;BME280;14495;48.116;11.676;2023-07-31T10:37:27;95421.34;;;24.12;66.20
26937;BME280;14495;48.116;11.676;2023-07-31T10:42:30;95420.63;;;25.27;63.20
26937;BME280;14495;48.116;11.676;2023-07-31T10:45:08;95411.63;;;25.57;63.92
26937;BME280;14495;48.116;11.676;2023-07-31T10:47:45;95419.50;;;24.79;62.39
26937;BME280;14495;48.116;11.676;2023-07-31T10:50:17;95420.88;;;24.89;64.18
26937;BME280;14495;48.116;11.676;2023-07-31T10:52:47;95421.66;;;25.26;63.10
26937;BME280;14495;48.116;11.676;2023-07-31T10:55:30;95413.31;;;24.42;63.37
26937;BME280;14495;48.116;11.676;2023-07-31T10:58:07;95419.75;;;24.33;63.99
26937;BME280;14495;48.116;11.676;2023-07-31T11:00:33;95421.19;;;24.50;67.16
26937;BME280;14495;48.116;11.676;2023-07-31T11:02:59;95416.19;;;24.25;62.62
26937;BME280;14495;48.116;11.676;2023-07-31T11:08:26;95406.22;;;24.34;64.16
26937;BME280;14495;48.116;11.676;2023-07-31T11:11:12;95405.38;;;24.34;64.98
26937;BME280;14495;48.116;11.676;2023-07-31T11:13:44;95395.44;;;25.00;61.72
26937;BME280;14495;48.116;11.676;2023-07-31T11:16:11;95391.72;;;24.73;61.84
26937;BME280;14495;48.116;11.676;2023-07-31T11:18:39;95387.66;;;23.96;62.47
26937;BME280;14495;48.116;11.676;2023-07-31T11:21:05;95386.69;;;24.34;63.79
26937;BME280;14495;48.116;11.676;2023-07-31T11:23:31;95388.84;;;24.23;63.57
26937;BME280;14495;48.116;11.676;2023-07-31T11:25:59;95395.00;;;24.09;65.22
26937;BME280;14495;48.116;11.676;2023-07-31T11:28:25;95382.78;;;24.00;64.90
26937;BME280;14495;48.116;11.676;2023-07-31T11:30:50;95386.38;;;24.07;65.87
26937;BME280;14495;48.116;11.676;2023-07-31T11:33:16;95388.09;;;24.29;63.70
26937;BME280;14495;48.116;11.676;2023-07-31T11:35:44;95384.50;;;24.74;64.61
26937;BME280;14495;48.116;11.676;2023-07-31T11:38:11;95372.94;;;25.31;63.15
26937;BME280;14495;48.116;11.676;2023-07-31T11:40:44;95362.28;;;25.66;60.89
26937;BME280;14495;48.116;11.676;2023-07-31T11:43:10;95364.94;;;24.88;60.97
26937;BME280;14495;48.116;11.676;2023-07-31T11:45:36;95359.13;;;25.27;61.57
26937;BME280;14495;48.116;11.676;2023-07-31T11:48:02;95353.47;;;25.72;61.86
26937;BME280;14495;48.116;11.676;2023-07-31T11:50:28;95355.53;;;25.42;57.71
26937;BME280;14495;48.116;11.676;2023-07-31T11:52:57;95353.44;;;25.37;59.76
26937;BME280;14495;48.116;11.676;2023-07-31T11:55:25;95333.75;;;26.15;63.17
26937;BME280;14495;48.116;11.676;2023-07-31T11:57:51;95330.75;;;26.38;59.84
26937;BME280;14495;48.116;11.676;2023-07-31T12:00:18;95331.25;;;26.13;58.03
26937;BME280;14495;48.116;11.676;2023-07-31T12:02:43;95326.75;;;26.20;60.01
26937;BME280;14495;48.116;11.676;2023-07-31T12:05:13;95323.59;;;25.62;58.66
26937;BME280;14495;48.116;11.676;2023-07-31T12:07:52;95322.84;;;25.81;59.46
26937;BME280;14495;48.116;11.676;2023-07-31T12:10:30;95317.91;;;25.78;59.95
26937;BME280;14495;48.116;11.676;2023-07-31T12:13:01;95309.59;;;26.01;61.97
26937;BME280;14495;48.116;11.676;2023-07-31T12:15:38;95302.69;;;25.85;57.76
26937;BME280;14495;48.116;11.676;2023-07-31T12:18:06;95296.59;;;25.98;56.61
26937;BME280;14495;48.116;11.676;2023-07-31T12:20:32;95296.88;;;26.17;61.86
26937;BME280;14495;48.116;11.676;2023-07-31T12:22:58;95288.16;;;26.56;57.24
26937;BME280;14495;48.116;11.676;2023-07-31T12:25:31;95290.88;;;26.96;58.79
26937;BME280;14495;48.116;11.676;2023-07-31T12:27:57;95282.81;;;26.63;56.37
26937;BME280;14495;48.116;11.676;2023-07-31T12:30:32;95274.94;;;26.41;58.31
26937;BME280;14495;48.116;11.676;2023-07-31T12:33:03;95277.50;;;26.76;55.68
26937;BME280;14495;48.116;11.676;2023-07-31T12:35:35;95277.28;;;27.18;54.33
26937;BME280;14495;48.116;11.676;2023-07-31T12:38:03;95271.69;;;27.60;58.22
26937;BME280;14495;48.116;11.676;2023-07-31T12:40:29;95271.72;;;26.99;56.78
26937;BME280;14495;48.116;11.676;2023-07-31T12:42:55;95270.69;;;27.00;57.17
26937;BME280;14495;48.116;11.676;2023-07-31T12:45:20;95265.25;;;26.54;56.57
26937;BME280;14495;48.116;11.676;2023-07-31T12:47:46;95253.56;;;26.75;54.08
26937;BME280;14495;48.116;11.676;2023-07-31T12:50:12;95254.38;;;26.62;57.17
26937;BME280;14495;48.116;11.676;2023-07-31T12:52:37;95249.00;;;27.49;56.62
26937;BME280;14495;48.116;11.676;2023-07-31T12:55:03;95242.19;;;28.11;54.60
26937;BME280;14495;48.116;11.676;2023-07-31T12:57:29;95238.56;;;27.79;55.92